sensor_id;sensor_type;location;lat;lon;timestamp;P1;durP1;ratioP1;P2;durP2;ratioP2
35418;SDS011;21525;41.240;16.500;2022-12-07T00:03:46;21.23;;;9.02;;
35418;SDS011;21525;41.240;16.500;2022-12-07T00:06:13;25.55;;;9.38;;
35418;SDS011;21525;41.240;16.500;2022-12-07T00:08:40;27.45;;;9.45;;
35418;SDS011;21525;41.240;16.500;2022-12-07T00:11:07;22.45;;;8.57;;
35418;SDS011;21525;41.240;16.500;2022-12-07T00:13:36;20.48;;;8.02;;
35418;SDS011;21525;41.240;16.500;2022-12-07T00:16:03;22.55;;;8.00;;
35418;SDS011;21525;41.240;16.500;2022-12-07T00:18:32;26.00;;;8.48;;
35418;SDS011;21525;41.240;16.500;2022-12-07T00:21:07;22.50;;;8.43;;
35418;SDS011;21525;41.240;16.500;2022-12-07T00:23:36;25.53;;;9.43;;
35418;SDS011;21525;41.240;16.500;2022-12-07T00:26:24;27.38;;;9.65;;
35418;SDS011;21525;41.240;16.500;2022-12-07T00:28:51;21.00;;;9.30;;
35418;SDS011;21525;41.240;16.500;2022-12-07T00:31:20;18.17;;;9.00;;
35418;SDS011;21525;41.240;16.500;2022-12-07T00:33:48;24.23;;;8.50;;
35418;SDS011;21525;41.240;16.500;2022-12-07T00:36:16;23.83;;;8.10;;
35418;SDS011;21525;41.240;16.500;2022-12-07T00:38:43;21.05;;;8.07;;
35418;SDS011;21525;41.240;16.500;2022-12-07T00:41:11;16.83;;;7.68;;
35418;SDS011;21525;41.240;16.500;2022-12-07T00:43:39;22.50;;;8.73;;
35418;SDS011;21525;41.240;16.500;2022-12-07T00:46:06;19.05;;;7.90;;
35418;SDS011;21525;41.240;16.500;2022-12-07T00:48:32;24.20;;;7.88;;
35418;SDS011;21525;41.240;16.500;2022-12-07T00:50:58;22.13;;;8.13;;
35418;SDS011;21525;41.240;16.500;2022-12-07T00:53:25;24.65;;;8.25;;
35418;SDS011;21525;41.240;16.500;2022-12-07T00:55:52;20.25;;;8.63;;
35418;SDS011;21525;41.240;16.500;2022-12-07T00:58:18;15.98;;;7.28;;
35418;SDS011;21525;41.240;16.500;2022-12-07T01:00:44;23.67;;;8.10;;
35418;SDS011;21525;41.240;16.500;2022-12-07T01:03:11;16.95;;;7.32;;
35418;SDS011;21525;41.240;16.500;2022-12-07T01:05:38;20.75;;;7.32;;
35418;SDS011;21525;41.240;16.500;2022-12-07T01:08:05;20.20;;;8.52;;
35418;SDS011;21525;41.240;16.500;2022-12-07T01:10:31;21.52;;;8.02;;
35418;SDS011;21525;41.240;16.500;2022-12-07T01:12:58;15.63;;;7.15;;
35418;SDS011;21525;41.240;16.500;2022-12-07T01:15:24;17.15;;;8.48;;
35418;SDS011;21525;41.240;16.500;2022-12-07T01:17:51;24.20;;;7.35;;
35418;SDS011;21525;41.240;16.500;2022-12-07T01:20:17;14.45;;;7.13;;
35418;SDS011;21525;41.240;16.500;2022-12-07T01:22:43;19.25;;;7.88;;
35418;SDS011;21525;41.240;16.500;2022-12-07T01:25:09;20.50;;;8.10;;
35418;SDS011;21525;41.240;16.500;2022-12-07T01:27:37;18.00;;;8.38;;
35418;SDS011;21525;41.240;16.500;2022-12-07T01:30:03;16.45;;;8.35;;
35418;SDS011;21525;41.240;16.500;2022-12-07T01:34:57;21.63;;;8.52;;
35418;SDS011;21525;41.240;16.500;2022-12-07T01:37:23;24.42;;;8.15;;
35418;SDS011;21525;41.240;16.500;2022-12-07T01:39:49;21.88;;;8.85;;
35418;SDS011;21525;41.240;16.500;2022-12-07T01:42:16;22.58;;;8.95;;
35418;SDS011;21525;41.240;16.500;2022-12-07T01:47:50;27.27;;;9.18;;
35418;SDS011;21525;41.240;16.500;2022-12-07T01:50:19;27.90;;;9.63;;
35418;SDS011;21525;41.240;16.500;2022-12-07T01:52:47;27.00;;;9.27;;
35418;SDS011;21525;41.240;16.500;2022-12-07T01:55:16;29.10;;;9.70;;
35418;SDS011;21525;41.240;16.500;2022-12-07T01:57:46;25.65;;;10.27;;
35418;SDS011;21525;41.240;16.500;2022-12-07T02:00:15;23.02;;;9.85;;
35418;SDS011;21525;41.240;16.500;2022-12-07T02:02:42;30.23;;;10.35;;
35418;SDS011;21525;41.240;16.500;2022-12-07T02:05:21;22.25;;;9.68;;
35418;SDS011;21525;41.240;16.500;2022-12-07T02:07:49;20.23;;;8.75;;
35418;SDS011;21525;41.240;16.500;2022-12-07T02:12:49;27.33;;;10.40;;
35418;SDS011;21525;41.240;16.500;2022-12-07T02:15:20;25.83;;;9.15;;
35418;SDS011;21525;41.240;16.500;2022-12-07T02:18:01;18.02;;;9.25;;
35418;SDS011;21525;41.240;16.500;2022-12-07T02:31:41;17.38;;;9.48;;
35418;SDS011;21525;41.240;16.500;2022-12-07T02:34:15;21.90;;;9.30;;
35418;SDS011;21525;41.240;16.500;2022-12-07T02:36:52;19.13;;;8.80;;
35418;SDS011;21525;41.240;16.500;2022-12-07T02:40:04;22.00;;;8.18;;
35418;SDS011;21525;41.240;16.500;2022-12-07T02:42:53;19.70;;;8.05;;
35418;SDS011;21525;41.240;16.500;2022-12-07T02:45:26;15.50;;;8.25;;
35418;SDS011;21525;41.240;16.500;2022-12-07T02:47:56;22.10;;;7.97;;
35418;SDS011;21525;41.240;16.500;2022-12-07T02:50:25;20.95;;;8.75;;
35418;SDS011;21525;41.240;16.500;2022-12-07T02:52:51;25.38;;;9.23;;
35418;SDS011;21525;41.240;16.500;2022-12-07T02:55:17;22.02;;;9.63;;
35418;SDS011;21525;41.240;16.500;2022-12-07T02:58:02;22.15;;;9.88;;
35418;SDS011;21525;41.240;16.500;2022-12-07T03:00:53;25.70;;;10.15;;
35418;SDS011;21525;41.240;16.500;2022-12-07T03:03:30;23.00;;;9.25;;
35418;SDS011;21525;41.240;16.500;2022-12-07T03:09:01;20.98;;;8.30;;
35418;SDS011;21525;41.240;16.500;2022-12-07T03:11:44;25.02;;;9.52;;
35418;SDS011;21525;41.240;16.500;2022-12-07T03:14:15;23.00;;;9.13;;
35418;SDS011;21525;41.240;16.500;2022-12-07T03:19:22;19.80;;;7.78;;
35418;SDS011;21525;41.240;16.500;2022-12-07T03:21:56;23.25;;;7.32;;
35418;SDS011;21525;41.240;16.500;2022-12-07T03:24:35;22.40;;;6.85;;
35418;SDS011;21525;41.240;16.500;2022-12-07T03:27:09;21.50;;;8.48;;
35418;SDS011;21525;41.240;16.500;2022-12-07T03:29:44;20.15;;;7.30;;
35418;SDS011;21525;41.240;16.500;2022-12-07T03:34:52;20.13;;;6.85;;
35418;SDS011;21525;41.240;16.500;2022-12-07T03:37:26;20.60;;;7.70;;
35418;SDS011;21525;41.240;16.500;2022-12-07T03:40:07;17.70;;;7.50;;
35418;SDS011;21525;41.240;16.500;2022-12-07T03:42:44;21.08;;;8.50;;
35418;SDS011;21525;41.240;16.500;2022-12-07T03:45:10;20.67;;;7.53;;
35418;SDS011;21525;41.240;16.500;2022-12-07T03:47:41;23.00;;;7.55;;
35418;SDS011;21525;41.240;16.500;2022-12-07T03:50:13;21.33;;;8.10;;
35418;SDS011;21525;41.240;16.500;2022-12-07T03:52:53;23.85;;;8.25;;
35418;SDS011;21525;41.240;16.500;2022-12-07T03:55:28;20.17;;;8.20;;
35418;SDS011;21525;41.240;16.500;2022-12-07T03:57:59;21.27;;;7.65;;
35418;SDS011;21525;41.240;16.500;2022-12-07T04:00:28;19.95;;;8.20;;
35418;SDS011;21525;41.240;16.500;2022-12-07T04:02:54;23.17;;;8.80;;
35418;SDS011;21525;41.240;16.500;2022-12-07T04:05:21;23.33;;;7.65;;
35418;SDS011;21525;41.240;16.500;2022-12-07T04:07:47;25.80;;;8.05;;
35418;SDS011;21525;41.240;16.500;2022-12-07T04:10:13;20.05;;;7.70;;
35418;SDS011;21525;41.240;16.500;2022-12-07T04:12:39;17.98;;;6.75;;
35418;SDS011;21525;41.240;16.500;2022-12-07T04:15:05;18.77;;;7.53;;
35418;SDS011;21525;41.240;16.500;2022-12-07T04:17:31;17.83;;;7.75;;
35418;SDS011;21525;41.240;16.500;2022-12-07T04:19:57;21.33;;;8.40;;
35418;SDS011;21525;41.240;16.500;2022-12-07T04:22:23;22.70;;;9.00;;
35418;SDS011;21525;41.240;16.500;2022-12-07T04:24:49;21.20;;;9.55;;
35418;SDS011;21525;41.240;16.500;2022-12-07T04:27:15;31.27;;;12.27;;
35418;SDS011;21525;41.240;16.500;2022-12-07T04:29:41;24.60;;;9.85;;
35418;SDS011;21525;41.240;16.500;2022-12-07T04:32:07;25.35;;;11.40;;
35418;SDS011;21525;41.240;16.500;2022-12-07T04:34:32;51.35;;;27.42;;
35418;SDS011;21525;41.240;16.500;2022-12-07T04:36:58;51.00;;;29.27;;
35418;SDS011;21525;41.240;16.500;2022-12-07T04:39:25;45.53;;;29.17;;
35418;SDS011;21525;41.240;16.500;2022-12-07T04:41:53;48.25;;;29.92;;
35418;SDS011;21525;41.240;16.500;2022-12-07T04:44:19;55.33;;;29.38;;
35418;SDS011;21525;41.240;16.500;2022-12-07T04:46:46;33.47;;;16.35;;
35418;SDS011;21525;41.240;16.500;2022-12-07T04:49:12;27.02;;;13.98;;
35418;SDS011;21525;41.240;16.500;2022-12-07T04:51:40;26.98;;;12.52;;
35418;SDS011;21525;41.240;16.500;2022-12-07T04:54:06;30.63;;;13.45;;
35418;SDS011;21525;41.240;16.500;2022-12-07T04:56:32;37.20;;;17.50;;
35418;SDS011;21525;41.240;16.500;2022-12-07T04:59:00;34.40;;;16.13;;
35418;SDS011;21525;41.240;16.500;2022-12-07T05:01:26;35.80;;;16.85;;
35418;SDS011;21525;41.240;16.500;2022-12-07T05:03:52;42.58;;;18.48;;
35418;SDS011;21525;41.240;16.500;2022-12-07T05:06:18;40.55;;;18.77;;
35418;SDS011;21525;41.240;16.500;2022-12-07T05:08:44;34.35;;;16.77;;
35418;SDS011;21525;41.240;16.500;2022-12-07T05:11:11;36.35;;;17.33;;
35418;SDS011;21525;41.240;16.500;2022-12-07T05:13:57;53.72;;;29.33;;
35418;SDS011;21525;41.240;16.500;2022-12-07T05:16:23;39.83;;;21.48;;
35418;SDS011;21525;41.240;16.500;2022-12-07T05:18:49;39.55;;;19.30;;
35418;SDS011;21525;41.240;16.500;2022-12-07T05:21:15;32.13;;;17.90;;
35418;SDS011;21525;41.240;16.500;2022-12-07T05:23:41;42.92;;;19.65;;
35418;SDS011;21525;41.240;16.500;2022-12-07T05:26:07;39.78;;;17.30;;
35418;SDS011;21525;41.240;16.500;2022-12-07T05:28:32;36.53;;;15.95;;
35418;SDS011;21525;41.240;16.500;2022-12-07T05:30:58;38.80;;;18.17;;
35418;SDS011;21525;41.240;16.500;2022-12-07T05:33:24;45.58;;;20.48;;
35418;SDS011;21525;41.240;16.500;2022-12-07T05:35:49;35.13;;;19.73;;
35418;SDS011;21525;41.240;16.500;2022-12-07T05:38:15;41.90;;;21.17;;
35418;SDS011;21525;41.240;16.500;2022-12-07T05:40:41;31.70;;;17.38;;
35418;SDS011;21525;41.240;16.500;2022-12-07T05:43:07;37.92;;;19.42;;
35418;SDS011;21525;41.240;16.500;2022-12-07T05:45:33;37.67;;;17.95;;
35418;SDS011;21525;41.240;16.500;2022-12-07T05:47:58;36.72;;;15.10;;
35418;SDS011;21525;41.240;16.500;2022-12-07T05:50:24;32.97;;;15.57;;
35418;SDS011;21525;41.240;16.500;2022-12-07T05:52:59;31.40;;;13.77;;
35418;SDS011;21525;41.240;16.500;2022-12-07T05:55:25;25.20;;;12.48;;
35418;SDS011;21525;41.240;16.500;2022-12-07T05:57:51;32.88;;;14.27;;
35418;SDS011;21525;41.240;16.500;2022-12-07T06:00:35;30.35;;;14.48;;
35418;SDS011;21525;41.240;16.500;2022-12-07T06:03:01;31.15;;;15.27;;
35418;SDS011;21525;41.240;16.500;2022-12-07T06:05:27;31.98;;;14.45;;
35418;SDS011;21525;41.240;16.500;2022-12-07T06:07:52;37.15;;;14.63;;
35418;SDS011;21525;41.240;16.500;2022-12-07T06:10:18;28.55;;;15.27;;
35418;SDS011;21525;41.240;16.500;2022-12-07T06:12:44;27.10;;;15.30;;
35418;SDS011;21525;41.240;16.500;2022-12-07T06:15:11;31.23;;;16.80;;
35418;SDS011;21525;41.240;16.500;2022-12-07T06:17:38;30.92;;;16.17;;
35418;SDS011;21525;41.240;16.500;2022-12-07T06:20:04;38.75;;;17.52;;
35418;SDS011;21525;41.240;16.500;2022-12-07T06:22:31;44.78;;;20.27;;
35418;SDS011;21525;41.240;16.500;2022-12-07T06:24:57;34.25;;;16.45;;
35418;SDS011;21525;41.240;16.500;2022-12-07T06:27:23;37.58;;;16.90;;
35418;SDS011;21525;41.240;16.500;2022-12-07T06:29:48;35.17;;;17.50;;
35418;SDS011;21525;41.240;16.500;2022-12-07T06:32:14;34.20;;;17.00;;
35418;SDS011;21525;41.240;16.500;2022-12-07T06:34:40;33.65;;;16.48;;
35418;SDS011;21525;41.240;16.500;2022-12-07T06:37:06;34.17;;;16.73;;
35418;SDS011;21525;41.240;16.500;2022-12-07T06:39:31;40.65;;;19.33;;
35418;SDS011;21525;41.240;16.500;2022-12-07T06:41:57;38.55;;;20.17;;
35418;SDS011;21525;41.240;16.500;2022-12-07T06:44:23;38.75;;;19.73;;
35418;SDS011;21525;41.240;16.500;2022-12-07T06:46:50;39.83;;;20.60;;
35418;SDS011;21525;41.240;16.500;2022-12-07T06:49:16;54.83;;;21.20;;
35418;SDS011;21525;41.240;16.500;2022-12-07T06:51:42;44.08;;;20.48;;
35418;SDS011;21525;41.240;16.500;2022-12-07T06:54:09;39.78;;;18.55;;
35418;SDS011;21525;41.240;16.500;2022-12-07T06:56:37;40.35;;;20.20;;
35418;SDS011;21525;41.240;16.500;2022-12-07T06:59:03;39.78;;;21.95;;
35418;SDS011;21525;41.240;16.500;2022-12-07T07:01:31;38.05;;;24.15;;
35418;SDS011;21525;41.240;16.500;2022-12-07T07:03:58;45.70;;;23.55;;
35418;SDS011;21525;41.240;16.500;2022-12-07T07:06:24;45.28;;;22.25;;
35418;SDS011;21525;41.240;16.500;2022-12-07T07:08:50;48.90;;;30.42;;
35418;SDS011;21525;41.240;16.500;2022-12-07T07:11:15;56.78;;;38.70;;
35418;SDS011;21525;41.240;16.500;2022-12-07T07:13:41;69.80;;;42.55;;
35418;SDS011;21525;41.240;16.500;2022-12-07T07:16:07;62.83;;;43.85;;
35418;SDS011;21525;41.240;16.500;2022-12-07T07:18:33;70.95;;;45.85;;
35418;SDS011;21525;41.240;16.500;2022-12-07T07:20:59;66.18;;;42.95;;
35418;SDS011;21525;41.240;16.500;2022-12-07T07:23:26;65.45;;;45.10;;
35418;SDS011;21525;41.240;16.500;2022-12-07T07:25:52;64.38;;;43.30;;
35418;SDS011;21525;41.240;16.500;2022-12-07T07:28:18;58.28;;;41.17;;
35418;SDS011;21525;41.240;16.500;2022-12-07T07:30:44;58.30;;;41.50;;
35418;SDS011;21525;41.240;16.500;2022-12-07T07:33:10;60.95;;;40.80;;
35418;SDS011;21525;41.240;16.500;2022-12-07T07:35:37;65.72;;;41.50;;
35418;SDS011;21525;41.240;16.500;2022-12-07T07:38:04;64.03;;;41.00;;
35418;SDS011;21525;41.240;16.500;2022-12-07T07:40:30;58.45;;;40.10;;
35418;SDS011;21525;41.240;16.500;2022-12-07T07:42:57;63.88;;;41.72;;
35418;SDS011;21525;41.240;16.500;2022-12-07T07:45:25;59.78;;;39.67;;
35418;SDS011;21525;41.240;16.500;2022-12-07T07:47:52;62.83;;;43.38;;
35418;SDS011;21525;41.240;16.500;2022-12-07T07:50:18;65.75;;;44.35;;
35418;SDS011;21525;41.240;16.500;2022-12-07T07:52:44;66.72;;;43.53;;
35418;SDS011;21525;41.240;16.500;2022-12-07T07:55:10;64.15;;;42.33;;
35418;SDS011;21525;41.240;16.500;2022-12-07T07:57:37;59.80;;;37.33;;
35418;SDS011;21525;41.240;16.500;2022-12-07T08:00:04;54.03;;;33.22;;
35418;SDS011;21525;41.240;16.500;2022-12-07T08:02:38;54.10;;;32.25;;
35418;SDS011;21525;41.240;16.500;2022-12-07T08:05:05;49.15;;;32.25;;
35418;SDS011;21525;41.240;16.500;2022-12-07T08:07:31;44.47;;;30.92;;
35418;SDS011;21525;41.240;16.500;2022-12-07T08:09:57;52.75;;;30.17;;
35418;SDS011;21525;41.240;16.500;2022-12-07T08:12:23;40.08;;;27.23;;
35418;SDS011;21525;41.240;16.500;2022-12-07T08:14:48;51.90;;;29.00;;
35418;SDS011;21525;41.240;16.500;2022-12-07T08:17:14;42.28;;;27.33;;
35418;SDS011;21525;41.240;16.500;2022-12-07T08:19:40;43.55;;;23.73;;
35418;SDS011;21525;41.240;16.500;2022-12-07T08:22:06;40.97;;;21.23;;
35418;SDS011;21525;41.240;16.500;2022-12-07T08:24:35;41.10;;;22.20;;
35418;SDS011;21525;41.240;16.500;2022-12-07T08:27:01;41.38;;;22.50;;
35418;SDS011;21525;41.240;16.500;2022-12-07T08:29:28;40.70;;;19.35;;
35418;SDS011;21525;41.240;16.500;2022-12-07T08:31:54;36.60;;;16.63;;
35418;SDS011;21525;41.240;16.500;2022-12-07T08:34:20;32.22;;;15.05;;
35418;SDS011;21525;41.240;16.500;2022-12-07T08:36:46;27.58;;;12.40;;
35418;SDS011;21525;41.240;16.500;2022-12-07T08:39:12;41.70;;;15.60;;
35418;SDS011;21525;41.240;16.500;2022-12-07T08:41:37;35.45;;;14.45;;
35418;SDS011;21525;41.240;16.500;2022-12-07T08:44:03;38.08;;;16.42;;
35418;SDS011;21525;41.240;16.500;2022-12-07T08:49:05;36.83;;;14.18;;
35418;SDS011;21525;41.240;16.500;2022-12-07T08:51:39;33.20;;;13.50;;
35418;SDS011;21525;41.240;16.500;2022-12-07T08:54:07;34.65;;;15.48;;
35418;SDS011;21525;41.240;16.500;2022-12-07T08:56:36;32.78;;;15.43;;
35418;SDS011;21525;41.240;16.500;2022-12-07T08:59:03;38.10;;;19.25;;
35418;SDS011;21525;41.240;16.500;2022-12-07T09:01:30;36.78;;;18.65;;
35418;SDS011;21525;41.240;16.500;2022-12-07T09:03:56;33.28;;;17.70;;
35418;SDS011;21525;41.240;16.500;2022-12-07T09:06:22;37.50;;;18.10;;
35418;SDS011;21525;41.240;16.500;2022-12-07T09:08:49;39.40;;;17.27;;
35418;SDS011;21525;41.240;16.500;2022-12-07T09:11:18;33.88;;;15.82;;
35418;SDS011;21525;41.240;16.500;2022-12-07T09:13:44;31.40;;;16.52;;
35418;SDS011;21525;41.240;16.500;2022-12-07T09:16:10;34.63;;;15.15;;
35418;SDS011;21525;41.240;16.500;2022-12-07T09:18:36;31.63;;;15.52;;
35418;SDS011;21525;41.240;16.500;2022-12-07T09:21:03;34.25;;;16.45;;
35418;SDS011;21525;41.240;16.500;2022-12-07T09:23:30;33.88;;;15.40;;
35418;SDS011;21525;41.240;16.500;2022-12-07T09:25:59;33.63;;;16.20;;
35418;SDS011;21525;41.240;16.500;2022-12-07T09:28:26;40.10;;;17.17;;
35418;SDS011;21525;41.240;16.500;2022-12-07T09:30:51;39.17;;;19.30;;
35418;SDS011;21525;41.240;16.500;2022-12-07T09:33:17;35.05;;;17.25;;
35418;SDS011;21525;41.240;16.500;2022-12-07T09:35:44;33.60;;;17.52;;
35418;SDS011;21525;41.240;16.500;2022-12-07T09:38:11;32.47;;;16.70;;
35418;SDS011;21525;41.240;16.500;2022-12-07T09:40:37;33.05;;;17.92;;
35418;SDS011;21525;41.240;16.500;2022-12-07T09:43:03;34.00;;;17.08;;
35418;SDS011;21525;41.240;16.500;2022-12-07T09:45:35;31.52;;;18.08;;
35418;SDS011;21525;41.240;16.500;2022-12-07T09:48:02;35.28;;;17.15;;
35418;SDS011;21525;41.240;16.500;2022-12-07T09:50:29;41.92;;;19.60;;
35418;SDS011;21525;41.240;16.500;2022-12-07T09:53:01;33.15;;;19.33;;
35418;SDS011;21525;41.240;16.500;2022-12-07T09:55:33;28.38;;;16.50;;
35418;SDS011;21525;41.240;16.500;2022-12-07T09:58:01;30.38;;;15.90;;
35418;SDS011;21525;41.240;16.500;2022-12-07T10:00:28;30.52;;;17.60;;
35418;SDS011;21525;41.240;16.500;2022-12-07T10:05:22;28.90;;;19.60;;
35418;SDS011;21525;41.240;16.500;2022-12-07T10:07:55;25.02;;;13.82;;
35418;SDS011;21525;41.240;16.500;2022-12-07T10:10:29;29.52;;;14.75;;
35418;SDS011;21525;41.240;16.500;2022-12-07T10:12:58;29.35;;;16.08;;
35418;SDS011;21525;41.240;16.500;2022-12-07T10:18:17;25.42;;;13.77;;
35418;SDS011;21525;41.240;16.500;2022-12-07T10:20:59;27.63;;;13.10;;
35418;SDS011;21525;41.240;16.500;2022-12-07T10:23:27;23.98;;;13.38;;
35418;SDS011;21525;41.240;16.500;2022-12-07T10:25:53;30.08;;;13.05;;
35418;SDS011;21525;41.240;16.500;2022-12-07T10:28:20;27.58;;;13.75;;
35418;SDS011;21525;41.240;16.500;2022-12-07T10:35:57;26.52;;;14.32;;
35418;SDS011;21525;41.240;16.500;2022-12-07T10:38:24;26.17;;;14.60;;
35418;SDS011;21525;41.240;16.500;2022-12-07T10:41:05;30.02;;;16.02;;
35418;SDS011;21525;41.240;16.500;2022-12-07T10:43:32;28.25;;;15.02;;
35418;SDS011;21525;41.240;16.500;2022-12-07T10:52:34;28.42;;;15.98;;
35418;SDS011;21525;41.240;16.500;2022-12-07T11:26:40;28.48;;;15.88;;
35418;SDS011;21525;41.240;16.500;2022-12-07T11:37:39;28.73;;;15.52;;
35418;SDS011;21525;41.240;16.500;2022-12-07T11:43:49;24.05;;;14.15;;
35418;SDS011;21525;41.240;16.500;2022-12-07T11:46:14;29.20;;;14.00;;
35418;SDS011;21525;41.240;16.500;2022-12-07T11:51:18;24.38;;;13.95;;
35418;SDS011;21525;41.240;16.500;2022-12-07T11:53:47;22.35;;;14.52;;
35418;SDS011;21525;41.240;16.500;2022-12-07T11:56:19;26.98;;;15.90;;
35418;SDS011;21525;41.240;16.500;2022-12-07T12:09:12;22.17;;;11.15;;
35418;SDS011;21525;41.240;16.500;2022-12-07T12:17:34;25.80;;;12.95;;
35418;SDS011;21525;41.240;16.500;2022-12-07T12:22:55;22.88;;;12.05;;
35418;SDS011;21525;41.240;16.500;2022-12-07T12:25:29;21.38;;;10.73;;
35418;SDS011;21525;41.240;16.500;2022-12-07T12:28:03;23.52;;;12.07;;
35418;SDS011;21525;41.240;16.500;2022-12-07T12:33:04;17.67;;;11.70;;
35418;SDS011;21525;41.240;16.500;2022-12-07T12:35:38;31.15;;;14.48;;
35418;SDS011;21525;41.240;16.500;2022-12-07T12:40:56;24.92;;;10.18;;
35418;SDS011;21525;41.240;16.500;2022-12-07T13:04:59;20.98;;;8.77;;
35418;SDS011;21525;41.240;16.500;2022-12-07T13:15:46;18.95;;;8.10;;
35418;SDS011;21525;41.240;16.500;2022-12-07T13:20:56;21.92;;;9.30;;
35418;SDS011;21525;41.240;16.500;2022-12-07T13:23:26;17.88;;;7.18;;
35418;SDS011;21525;41.240;16.500;2022-12-07T13:26:21;23.80;;;9.50;;
35418;SDS011;21525;41.240;16.500;2022-12-07T13:34:03;22.70;;;9.40;;
35418;SDS011;21525;41.240;16.500;2022-12-07T13:36:50;18.95;;;7.97;;
35418;SDS011;21525;41.240;16.500;2022-12-07T13:39:18;15.38;;;7.75;;
35418;SDS011;21525;41.240;16.500;2022-12-07T13:41:44;17.85;;;8.13;;
35418;SDS011;21525;41.240;16.500;2022-12-07T13:44:15;21.52;;;7.90;;
35418;SDS011;21525;41.240;16.500;2022-12-07T13:49:38;21.00;;;8.75;;
35418;SDS011;21525;41.240;16.500;2022-12-07T13:52:23;23.05;;;8.50;;
35418;SDS011;21525;41.240;16.500;2022-12-07T13:54:58;19.42;;;8.20;;
35418;SDS011;21525;41.240;16.500;2022-12-07T13:57:28;28.13;;;10.82;;
35418;SDS011;21525;41.240;16.500;2022-12-07T14:00:00;23.27;;;11.27;;
35418;SDS011;21525;41.240;16.500;2022-12-07T14:02:31;19.40;;;8.50;;
35418;SDS011;21525;41.240;16.500;2022-12-07T14:05:09;18.00;;;8.38;;
35418;SDS011;21525;41.240;16.500;2022-12-07T14:11:09;16.98;;;7.57;;
35418;SDS011;21525;41.240;16.500;2022-12-07T14:15:49;16.42;;;7.90;;
35418;SDS011;21525;41.240;16.500;2022-12-07T14:21:14;18.23;;;8.68;;
35418;SDS011;21525;41.240;16.500;2022-12-07T14:24:02;23.30;;;9.32;;
35418;SDS011;21525;41.240;16.500;2022-12-07T14:26:34;27.73;;;13.88;;
35418;SDS011;21525;41.240;16.500;2022-12-07T14:29:20;28.80;;;12.73;;
35418;SDS011;21525;41.240;16.500;2022-12-07T14:31:46;24.83;;;11.20;;
35418;SDS011;21525;41.240;16.500;2022-12-07T14:34:12;17.20;;;8.93;;
35418;SDS011;21525;41.240;16.500;2022-12-07T14:36:38;20.15;;;9.90;;
35418;SDS011;21525;41.240;16.500;2022-12-07T14:39:04;21.60;;;11.38;;
35418;SDS011;21525;41.240;16.500;2022-12-07T14:41:29;20.25;;;9.98;;
35418;SDS011;21525;41.240;16.500;2022-12-07T14:44:14;20.90;;;10.27;;
35418;SDS011;21525;41.240;16.500;2022-12-07T14:46:40;21.08;;;11.38;;
35418;SDS011;21525;41.240;16.500;2022-12-07T14:49:06;26.60;;;15.20;;
35418;SDS011;21525;41.240;16.500;2022-12-07T14:51:31;23.45;;;10.10;;
35418;SDS011;21525;41.240;16.500;2022-12-07T14:53:58;27.77;;;11.27;;
35418;SDS011;21525;41.240;16.500;2022-12-07T14:56:24;29.38;;;15.45;;
35418;SDS011;21525;41.240;16.500;2022-12-07T14:58:51;37.95;;;21.05;;
35418;SDS011;21525;41.240;16.500;2022-12-07T15:01:16;34.17;;;15.93;;
35418;SDS011;21525;41.240;16.500;2022-12-07T15:03:42;23.13;;;10.10;;
35418;SDS011;21525;41.240;16.500;2022-12-07T15:06:10;18.48;;;10.57;;
35418;SDS011;21525;41.240;16.500;2022-12-07T15:08:39;21.70;;;10.27;;
35418;SDS011;21525;41.240;16.500;2022-12-07T15:11:05;21.95;;;10.02;;
35418;SDS011;21525;41.240;16.500;2022-12-07T15:13:31;25.23;;;11.45;;
35418;SDS011;21525;41.240;16.500;2022-12-07T15:16:16;26.75;;;12.70;;
35418;SDS011;21525;41.240;16.500;2022-12-07T15:18:45;29.40;;;13.50;;
35418;SDS011;21525;41.240;16.500;2022-12-07T15:21:13;27.20;;;13.13;;
35418;SDS011;21525;41.240;16.500;2022-12-07T15:23:40;30.58;;;17.50;;
35418;SDS011;21525;41.240;16.500;2022-12-07T15:26:06;30.60;;;17.20;;
35418;SDS011;21525;41.240;16.500;2022-12-07T15:28:33;35.25;;;19.90;;
35418;SDS011;21525;41.240;16.500;2022-12-07T15:30:59;39.88;;;26.13;;
35418;SDS011;21525;41.240;16.500;2022-12-07T15:33:25;39.05;;;20.13;;
35418;SDS011;21525;41.240;16.500;2022-12-07T15:35:51;32.33;;;16.52;;
35418;SDS011;21525;41.240;16.500;2022-12-07T15:38:17;30.17;;;17.05;;
35418;SDS011;21525;41.240;16.500;2022-12-07T15:40:42;28.20;;;16.05;;
35418;SDS011;21525;41.240;16.500;2022-12-07T15:43:12;32.20;;;14.45;;
35418;SDS011;21525;41.240;16.500;2022-12-07T15:45:56;29.17;;;15.88;;
35418;SDS011;21525;41.240;16.500;2022-12-07T15:48:22;27.42;;;14.68;;
35418;SDS011;21525;41.240;16.500;2022-12-07T15:50:48;31.30;;;20.55;;
35418;SDS011;21525;41.240;16.500;2022-12-07T15:53:14;46.63;;;24.95;;
35418;SDS011;21525;41.240;16.500;2022-12-07T15:55:39;44.70;;;22.42;;
35418;SDS011;21525;41.240;16.500;2022-12-07T15:58:05;49.33;;;23.88;;
35418;SDS011;21525;41.240;16.500;2022-12-07T16:00:32;50.88;;;31.25;;
35418;SDS011;21525;41.240;16.500;2022-12-07T16:02:58;57.40;;;32.65;;
35418;SDS011;21525;41.240;16.500;2022-12-07T16:05:24;56.22;;;28.33;;
35418;SDS011;21525;41.240;16.500;2022-12-07T16:07:50;59.00;;;29.45;;
35418;SDS011;21525;41.240;16.500;2022-12-07T16:10:15;49.13;;;28.45;;
35418;SDS011;21525;41.240;16.500;2022-12-07T16:12:41;59.05;;;29.20;;
35418;SDS011;21525;41.240;16.500;2022-12-07T16:15:07;53.25;;;29.45;;
35418;SDS011;21525;41.240;16.500;2022-12-07T16:17:33;68.07;;;29.67;;
35418;SDS011;21525;41.240;16.500;2022-12-07T16:19:59;56.63;;;28.45;;
35418;SDS011;21525;41.240;16.500;2022-12-07T16:22:25;43.90;;;23.33;;
35418;SDS011;21525;41.240;16.500;2022-12-07T16:24:50;44.45;;;22.38;;
35418;SDS011;21525;41.240;16.500;2022-12-07T16:27:16;53.20;;;24.83;;
35418;SDS011;21525;41.240;16.500;2022-12-07T16:29:42;46.47;;;21.92;;
35418;SDS011;21525;41.240;16.500;2022-12-07T16:32:08;43.10;;;21.02;;
35418;SDS011;21525;41.240;16.500;2022-12-07T16:34:35;48.33;;;23.20;;
35418;SDS011;21525;41.240;16.500;2022-12-07T16:37:02;48.72;;;24.75;;
35418;SDS011;21525;41.240;16.500;2022-12-07T16:39:28;63.10;;;34.67;;
35418;SDS011;21525;41.240;16.500;2022-12-07T16:41:53;68.57;;;37.03;;
35418;SDS011;21525;41.240;16.500;2022-12-07T16:44:19;76.05;;;40.17;;
35418;SDS011;21525;41.240;16.500;2022-12-07T16:46:45;70.10;;;36.88;;
35418;SDS011;21525;41.240;16.500;2022-12-07T16:49:12;64.72;;;32.55;;
35418;SDS011;21525;41.240;16.500;2022-12-07T16:51:38;48.80;;;27.52;;
35418;SDS011;21525;41.240;16.500;2022-12-07T16:54:04;47.47;;;25.33;;
35418;SDS011;21525;41.240;16.500;2022-12-07T16:56:30;46.35;;;21.70;;
35418;SDS011;21525;41.240;16.500;2022-12-07T16:58:59;49.15;;;19.42;;
35418;SDS011;21525;41.240;16.500;2022-12-07T17:01:26;47.53;;;24.98;;
35418;SDS011;21525;41.240;16.500;2022-12-07T17:03:53;88.10;;;46.65;;
35418;SDS011;21525;41.240;16.500;2022-12-07T17:06:20;104.72;;;58.47;;
35418;SDS011;21525;41.240;16.500;2022-12-07T17:08:51;116.07;;;59.42;;
35418;SDS011;21525;41.240;16.500;2022-12-07T17:13:47;156.25;;;90.53;;